Time;durP1;ratioP1;P1;durP2;ratioP2;P2;SDS_P1;SDS_P2;PMS_P1;PMS_P2;Temp;Humidity;BMP_temperature;BMP_pressure;BME280_temperature;BME280_humidity;BME280_pressure;Samples;Min_cycle;Max_cycle;Signal;HPM_P1;HPM_P2
2024/02/19 00:02:24;;;;;;;17.38;2.00;;;;;;;;;;4982721;28;20034;-81
2024/02/19 00:04:50;;;;;;;17.27;2.10;;;;;;;;;;4985478;28;20393;-81
2024/02/19 00:07:17;;;;;;;15.20;2.70;;;;;;;;;;4972661;28;20117;-81
2024/02/19 00:09:44;;;;;;;13.23;2.63;;;;;;;;;;4986172;28;20121;-82
2024/02/19 00:12:10;;;;;;;15.25;2.22;;;;;;;;;;4981450;28;20030;-81
2024/02/19 00:14:36;;;;;;;16.10;2.42;;;;;;;;;;4966414;28;20485;-81
2024/02/19 00:17:01;;;;;;;20.48;2.60;;;;;;;;;;4983936;28;20031;-81
2024/02/19 00:19:27;;;;;;;16.85;2.55;;;;;;;;;;4967501;28;20130;-81
2024/02/19 00:21:52;;;;;;;16.50;2.95;;;;;;;;;;4980465;28;20044;-81
2024/02/19 00:24:17;;;;;;;16.15;2.40;;;;;;;;;;4987748;28;20081;-82
2024/02/19 00:26:43;;;;;;;15.88;2.72;;;;;;;;;;4984203;28;20034;-81
2024/02/19 00:29:08;;;;;;;18.10;2.85;;;;;;;;;;4985390;28;20086;-82
2024/02/19 00:31:34;;;;;;;12.45;2.00;;;;;;;;;;4982841;28;20026;-81
2024/02/19 00:33:59;;;;;;;17.67;3.05;;;;;;;;;;4985177;28;20030;-81
2024/02/19 00:36:25;;;;;;;13.10;2.45;;;;;;;;;;4984023;28;20032;-81
2024/02/19 00:38:50;;;;;;;17.45;2.10;;;;;;;;;;4981893;28;20031;-82
2024/02/19 00:41:17;;;;;;;15.55;2.10;;;;;;;;;;4990275;28;20113;-82
2024/02/19 00:43:42;;;;;;;16.02;2.30;;;;;;;;;;4974504;28;20384;-82
2024/02/19 00:46:08;;;;;;;17.23;2.28;;;;;;;;;;4982745;28;20026;-82
2024/02/19 00:48:33;;;;;;;19.55;2.17;;;;;;;;;;4988960;28;20105;-82
2024/02/19 00:50:58;;;;;;;15.23;2.47;;;;;;;;;;4998778;28;20050;-81
2024/02/19 00:53:24;;;;;;;12.15;1.90;;;;;;;;;;4987842;28;20408;-82
2024/02/19 00:55:49;;;;;;;11.25;2.28;;;;;;;;;;4983829;28;20109;-82
2024/02/19 00:58:15;;;;;;;12.10;2.03;;;;;;;;;;4983123;28;20527;-82
2024/02/19 01:00:40;;;;;;;24.30;2.97;;;;;;;;;;4982628;28;20017;-81
2024/02/19 01:03:06;;;;;;;15.85;2.17;;;;;;;;;;4983802;28;20077;-82
2024/02/19 01:05:32;;;;;;;14.90;2.75;;;;;;;;;;4988727;28;20395;-81
2024/02/19 01:07:58;;;;;;;16.80;2.25;;;;;;;;;;4982328;28;20096;-82
2024/02/19 01:10:23;;;;;;;15.23;2.78;;;;;;;;;;4961230;28;20477;-81
2024/02/19 01:12:49;;;;;;;15.63;2.88;;;;;;;;;;4991968;28;20021;-81
2024/02/19 01:15:15;;;;;;;15.80;2.70;;;;;;;;;;4971614;28;20420;-81
2024/02/19 01:17:43;;;;;;;13.63;2.30;;;;;;;;;;4973353;28;20061;-82
2024/02/19 01:20:09;;;;;;;12.77;2.63;;;;;;;;;;4977769;28;20448;-82
2024/02/19 01:22:35;;;;;;;14.57;2.75;;;;;;;;;;4988240;28;20026;-82
2024/02/19 01:25:01;;;;;;;15.43;2.30;;;;;;;;;;4989820;28;20031;-82
2024/02/19 01:27:26;;;;;;;15.88;2.30;;;;;;;;;;4985390;28;20125;-81
2024/02/19 01:29:51;;;;;;;13.00;2.13;;;;;;;;;;4971338;28;20500;-82
2024/02/19 01:32:17;;;;;;;11.65;1.83;;;;;;;;;;4987773;28;20468;-81
2024/02/19 01:34:43;;;;;;;21.83;2.42;;;;;;;;;;4985091;28;20526;-81
2024/02/19 01:37:09;;;;;;;15.07;2.13;;;;;;;;;;4983380;28;20036;-82
2024/02/19 01:39:34;;;;;;;21.65;2.80;;;;;;;;;;4967992;28;20053;-82
2024/02/19 01:42:00;;;;;;;15.68;2.50;;;;;;;;;;4982481;28;20026;-82
2024/02/19 01:44:26;;;;;;;15.10;2.03;;;;;;;;;;4981654;28;20040;-82
2024/02/19 01:46:52;;;;;;;16.77;2.17;;;;;;;;;;4991442;28;20111;-82
2024/02/19 01:49:19;;;;;;;16.48;1.98;;;;;;;;;;4980944;28;20079;-82
2024/02/19 01:51:45;;;;;;;11.38;1.98;;;;;;;;;;4980856;28;20477;-81
2024/02/19 01:54:11;;;;;;;12.48;2.03;;;;;;;;;;4967084;28;20097;-82
2024/02/19 01:56:38;;;;;;;10.00;1.77;;;;;;;;;;4968167;28;20586;-82
2024/02/19 01:59:06;;;;;;;11.65;2.20;;;;;;;;;;4974524;28;20030;-80
2024/02/19 02:04:04;;;;;;;14.65;2.50;;;;;;;;;;5001637;28;20408;-87
2024/02/19 02:06:30;;;;;;;11.38;2.10;;;;;;;;;;5001448;28;20396;-88
2024/02/19 02:08:56;;;;;;;14.40;2.35;;;;;;;;;;5001929;28;20026;-88
2024/02/19 02:11:21;;;;;;;17.92;3.72;;;;;;;;;;4987481;28;20115;-88
2024/02/19 02:13:47;;;;;;;13.13;2.05;;;;;;;;;;4986698;28;20197;-88
2024/02/19 02:16:22;;;;;;;13.90;1.80;;;;;;;;;;4986653;28;20109;-88
2024/02/19 02:18:48;;;;;;;11.27;1.92;;;;;;;;;;5005134;28;20041;-88
2024/02/19 02:21:16;;;;;;;11.75;1.85;;;;;;;;;;5004132;28;20026;-88
2024/02/19 02:23:41;;;;;;;12.13;2.15;;;;;;;;;;5003099;28;20037;-87
2024/02/19 02:26:07;;;;;;;8.88;1.75;;;;;;;;;;4976511;28;20021;-88
2024/02/19 02:28:33;;;;;;;13.80;1.70;;;;;;;;;;5002094;28;20562;-88
2024/02/19 02:30:58;;;;;;;13.32;2.10;;;;;;;;;;4986463;28;20034;-87
2024/02/19 02:33:23;;;;;;;15.55;2.80;;;;;;;;;;5002534;28;20057;-88
2024/02/19 02:35:49;;;;;;;17.90;2.45;;;;;;;;;;5003530;28;20079;-88
2024/02/19 02:38:14;;;;;;;9.25;1.60;;;;;;;;;;5002998;28;20111;-88
2024/02/19 02:40:39;;;;;;;13.18;1.98;;;;;;;;;;4988129;28;20022;-86
2024/02/19 02:43:05;;;;;;;13.57;2.25;;;;;;;;;;5002574;28;20054;-87
2024/02/19 02:45:30;;;;;;;13.02;1.90;;;;;;;;;;5002789;28;20029;-87
2024/02/19 02:47:56;;;;;;;14.43;2.15;;;;;;;;;;5002151;28;20029;-88
2024/02/19 02:50:21;;;;;;;16.25;2.20;;;;;;;;;;5003451;28;20041;-88
2024/02/19 02:52:47;;;;;;;9.32;1.70;;;;;;;;;;4987794;28;20035;-88
2024/02/19 02:55:12;;;;;;;11.73;2.45;;;;;;;;;;4983264;28;20027;-87
2024/02/19 02:57:38;;;;;;;12.70;2.33;;;;;;;;;;4982751;28;20034;-88
2024/02/19 03:00:04;;;;;;;12.95;1.95;;;;;;;;;;4967641;28;20033;-88
2024/02/19 03:02:30;;;;;;;16.13;2.35;;;;;;;;;;4983929;28;20025;-88
2024/02/19 03:04:55;;;;;;;14.23;2.42;;;;;;;;;;4965914;28;20026;-88
2024/02/19 03:07:21;;;;;;;13.07;2.50;;;;;;;;;;4986162;28;20018;-87
2024/02/19 03:09:46;;;;;;;14.63;2.40;;;;;;;;;;4966777;28;20392;-88
2024/02/19 03:12:11;;;;;;;15.00;2.63;;;;;;;;;;4985168;28;20392;-87
2024/02/19 03:14:37;;;;;;;16.67;2.58;;;;;;;;;;4985576;28;20076;-82
2024/02/19 03:17:04;;;;;;;14.52;2.45;;;;;;;;;;4984390;28;20030;-81
2024/02/19 03:19:30;;;;;;;9.85;1.90;;;;;;;;;;4967384;28;20396;-81
2024/02/19 03:21:56;;;;;;;13.00;2.90;;;;;;;;;;4984889;28;20023;-82
2024/02/19 03:24:22;;;;;;;12.55;2.78;;;;;;;;;;4984536;28;20030;-81
2024/02/19 03:26:49;;;;;;;10.85;2.40;;;;;;;;;;4982828;28;20452;-82
2024/02/19 03:29:14;;;;;;;14.98;2.53;;;;;;;;;;4984697;28;20044;-82
2024/02/19 03:31:40;;;;;;;12.77;2.47;;;;;;;;;;4984934;28;20419;-82
2024/02/19 03:34:06;;;;;;;13.50;2.42;;;;;;;;;;4985861;28;20029;-81
2024/02/19 03:36:31;;;;;;;11.88;2.08;;;;;;;;;;4993970;28;20380;-81
2024/02/19 03:38:57;;;;;;;17.92;2.80;;;;;;;;;;4988734;28;20808;-82
2024/02/19 03:41:22;;;;;;;14.75;2.65;;;;;;;;;;4988096;28;20076;-82
2024/02/19 03:43:48;;;;;;;13.23;2.63;;;;;;;;;;4987071;28;21375;-82
2024/02/19 03:46:14;;;;;;;14.02;2.55;;;;;;;;;;4987372;28;20026;-82
2024/02/19 03:48:39;;;;;;;12.77;2.40;;;;;;;;;;4988270;28;20019;-82
2024/02/19 03:51:05;;;;;;;17.02;2.53;;;;;;;;;;4986498;28;20058;-79
2024/02/19 03:53:31;;;;;;;11.60;2.00;;;;;;;;;;4973253;28;20080;-80
2024/02/19 03:55:58;;;;;;;11.88;2.05;;;;;;;;;;4986720;28;20022;-79
2024/02/19 03:58:24;;;;;;;13.85;2.33;;;;;;;;;;4987297;28;20053;-80
2024/02/19 04:00:49;;;;;;;11.95;2.40;;;;;;;;;;4991039;28;20060;-79
2024/02/19 04:03:16;;;;;;;9.95;2.38;;;;;;;;;;4987941;28;20034;-79
2024/02/19 04:05:41;;;;;;;13.35;2.28;;;;;;;;;;4987883;28;20022;-79
2024/02/19 04:08:07;;;;;;;14.57;2.70;;;;;;;;;;4989069;28;20029;-80
2024/02/19 04:10:32;;;;;;;15.02;2.60;;;;;;;;;;4986502;28;20061;-79
2024/02/19 04:12:58;;;;;;;10.32;2.13;;;;;;;;;;4987508;28;20471;-80
2024/02/19 04:15:23;;;;;;;11.70;2.58;;;;;;;;;;4987646;28;20760;-80
2024/02/19 04:17:49;;;;;;;10.43;2.22;;;;;;;;;;4987972;28;20113;-80
2024/02/19 04:20:15;;;;;;;17.50;2.88;;;;;;;;;;4987210;28;20026;-80
2024/02/19 04:22:41;;;;;;;16.38;3.00;;;;;;;;;;4986323;28;20391;-80
2024/02/19 04:25:06;;;;;;;11.98;2.30;;;;;;;;;;4971108;28;20077;-80
2024/02/19 04:27:32;;;;;;;13.95;2.38;;;;;;;;;;4987532;28;20035;-80
2024/02/19 04:29:57;;;;;;;15.05;2.42;;;;;;;;;;4987665;28;20038;-80
2024/02/19 04:32:23;;;;;;;9.75;2.33;;;;;;;;;;4987006;28;20085;-80
2024/02/19 04:34:48;;;;;;;10.48;2.45;;;;;;;;;;4990066;28;20396;-80
2024/02/19 04:37:14;;;;;;;8.52;2.20;;;;;;;;;;4987545;28;20121;-79
2024/02/19 04:39:40;;;;;;;12.52;2.40;;;;;;;;;;4987543;28;20022;-80
2024/02/19 04:42:06;;;;;;;9.60;2.10;;;;;;;;;;4986671;28;20044;-80
2024/02/19 04:44:32;;;;;;;12.10;2.10;;;;;;;;;;4987208;28;20031;-80
2024/02/19 04:46:57;;;;;;;9.82;2.42;;;;;;;;;;4987272;28;20026;-80
2024/02/19 04:49:23;;;;;;;9.88;2.53;;;;;;;;;;4987880;28;20456;-80
2024/02/19 04:51:48;;;;;;;11.77;1.98;;;;;;;;;;4987384;28;20093;-80
2024/02/19 04:54:14;;;;;;;11.63;2.30;;;;;;;;;;4970273;28;20057;-80
2024/02/19 04:56:39;;;;;;;10.75;2.08;;;;;;;;;;4988489;28;20026;-80
2024/02/19 04:59:05;;;;;;;12.07;2.28;;;;;;;;;;4986080;28;20034;-80
2024/02/19 05:01:31;;;;;;;11.77;2.63;;;;;;;;;;4988355;28;20412;-80
2024/02/19 05:03:57;;;;;;;11.07;2.85;;;;;;;;;;4985314;28;20432;-80
2024/02/19 05:06:23;;;;;;;11.80;2.35;;;;;;;;;;4986264;28;20077;-80
2024/02/19 05:08:48;;;;;;;14.05;2.30;;;;;;;;;;4986464;28;20026;-80
2024/02/19 05:11:17;;;;;;;8.48;2.00;;;;;;;;;;4986448;28;20392;-79
2024/02/19 05:13:42;;;;;;;12.05;2.10;;;;;;;;;;4986730;28;20085;-80
2024/02/19 05:16:08;;;;;;;8.43;1.90;;;;;;;;;;4986861;28;20038;-80
2024/02/19 05:18:34;;;;;;;7.38;2.17;;;;;;;;;;4983445;28;20089;-80
2024/02/19 05:21:00;;;;;;;11.48;1.73;;;;;;;;;;4986076;28;20050;-79
2024/02/19 05:23:26;;;;;;;12.40;2.30;;;;;;;;;;4985062;28;20411;-80
2024/02/19 05:25:51;;;;;;;9.90;1.60;;;;;;;;;;4985085;28;20041;-80
2024/02/19 05:28:16;;;;;;;10.15;1.92;;;;;;;;;;4985853;28;20044;-80
2024/02/19 05:30:43;;;;;;;12.32;2.00;;;;;;;;;;4969572;28;20061;-80
2024/02/19 05:33:08;;;;;;;9.63;2.17;;;;;;;;;;4986699;28;20022;-80
2024/02/19 05:35:33;;;;;;;15.07;2.72;;;;;;;;;;4985229;28;20424;-86
2024/02/19 05:37:59;;;;;;;10.73;1.88;;;;;;;;;;4985544;28;20455;-86
2024/02/19 05:40:24;;;;;;;11.27;2.47;;;;;;;;;;4985042;28;20022;-85
2024/02/19 05:42:50;;;;;;;11.43;2.00;;;;;;;;;;4967995;28;20026;-85
2024/02/19 05:45:15;;;;;;;10.15;1.88;;;;;;;;;;4984615;28;20022;-85
2024/02/19 05:47:41;;;;;;;8.15;1.67;;;;;;;;;;4984600;28;20030;-85
2024/02/19 05:50:06;;;;;;;9.95;1.80;;;;;;;;;;4963039;28;20037;-85
2024/02/19 05:52:32;;;;;;;12.60;2.72;;;;;;;;;;4986261;28;20022;-85
2024/02/19 05:54:58;;;;;;;10.70;2.38;;;;;;;;;;4985743;28;20026;-86
2024/02/19 05:57:25;;;;;;;10.85;1.90;;;;;;;;;;4983092;28;20030;-86
2024/02/19 05:59:50;;;;;;;9.48;2.08;;;;;;;;;;4967185;28;20060;-85
2024/02/19 06:02:15;;;;;;;13.73;2.15;;;;;;;;;;4982519;28;20053;-85
2024/02/19 06:04:41;;;;;;;12.20;2.00;;;;;;;;;;4984857;28;20457;-86
2024/02/19 06:07:06;;;;;;;13.00;1.95;;;;;;;;;;4982298;28;20026;-86
2024/02/19 06:09:32;;;;;;;9.00;1.95;;;;;;;;;;4984756;28;20027;-85
2024/02/19 06:11:57;;;;;;;9.82;1.90;;;;;;;;;;4983029;28;20034;-85
2024/02/19 06:14:23;;;;;;;12.30;2.25;;;;;;;;;;4984074;28;20026;-86
2024/02/19 06:16:48;;;;;;;9.88;1.88;;;;;;;;;;4983693;28;20030;-86
2024/02/19 06:19:15;;;;;;;9.20;2.42;;;;;;;;;;4968976;28;20443;-85
2024/02/19 06:21:41;;;;;;;6.95;2.00;;;;;;;;;;4982502;28;20068;-85
2024/02/19 06:24:07;;;;;;;9.55;1.80;;;;;;;;;;4967941;28;20030;-88
2024/02/19 06:26:32;;;;;;;11.43;2.72;;;;;;;;;;4982533;28;20030;-85
2024/02/19 06:28:58;;;;;;;8.80;1.73;;;;;;;;;;4982580;28;20022;-85
2024/02/19 06:31:27;;;;;;;8.50;1.95;;;;;;;;;;4982433;28;20464;-85
2024/02/19 06:33:55;;;;;;;12.73;2.17;;;;;;;;;;4983372;28;20601;-86
2024/02/19 06:36:21;;;;;;;12.63;2.40;;;;;;;;;;4985849;28;20030;-85
2024/02/19 06:38:46;;;;;;;12.73;2.35;;;;;;;;;;4985177;28;20037;-85
2024/02/19 06:41:12;;;;;;;8.63;1.90;;;;;;;;;;4970067;28;20123;-85
2024/02/19 06:43:37;;;;;;;9.63;2.20;;;;;;;;;;4985082;28;20034;-86
2024/02/19 06:46:03;;;;;;;12.05;2.15;;;;;;;;;;4983320;28;20026;-85
2024/02/19 06:48:28;;;;;;;10.95;1.83;;;;;;;;;;4966135;28;20026;-86
2024/02/19 06:50:54;;;;;;;9.90;1.92;;;;;;;;;;4982441;28;20038;-86
2024/02/19 06:53:19;;;;;;;6.60;2.17;;;;;;;;;;4985401;28;20029;-85
2024/02/19 06:55:44;;;;;;;11.98;2.40;;;;;;;;;;4984291;28;20054;-85
2024/02/19 06:58:10;;;;;;;13.15;2.53;;;;;;;;;;4965694;28;20119;-86
2024/02/19 07:00:35;;;;;;;13.48;2.60;;;;;;;;;;4984447;28;20362;-86
2024/02/19 07:03:01;;;;;;;7.28;2.13;;;;;;;;;;4984720;28;20110;-86
2024/02/19 07:05:26;;;;;;;7.32;1.75;;;;;;;;;;4970253;28;20088;-85
2024/02/19 07:07:52;;;;;;;8.15;2.72;;;;;;;;;;4985516;28;20026;-85
2024/02/19 07:10:17;;;;;;;11.18;2.40;;;;;;;;;;4974178;28;20018;-85
2024/02/19 07:12:43;;;;;;;9.77;2.10;;;;;;;;;;4992300;28;20030;-85
2024/02/19 07:15:09;;;;;;;9.45;2.10;;;;;;;;;;4976088;28;20038;-83
2024/02/19 07:17:34;;;;;;;11.52;2.20;;;;;;;;;;4987663;28;20026;-85
2024/02/19 07:20:01;;;;;;;10.45;2.20;;;;;;;;;;4976291;28;20045;-84
2024/02/19 07:22:26;;;;;;;9.27;2.00;;;;;;;;;;4975232;28;20034;-85
2024/02/19 07:24:52;;;;;;;10.20;2.10;;;;;;;;;;4976914;28;20399;-86
2024/02/19 07:27:17;;;;;;;8.38;2.35;;;;;;;;;;4987932;28;20031;-84
2024/02/19 07:29:42;;;;;;;15.30;3.17;;;;;;;;;;4985868;28;20034;-85
2024/02/19 07:32:08;;;;;;;9.98;2.65;;;;;;;;;;4989451;28;20026;-85
2024/02/19 07:34:33;;;;;;;9.27;2.40;;;;;;;;;;4988481;28;20392;-84
2024/02/19 07:36:59;;;;;;;11.10;2.50;;;;;;;;;;4990524;28;20022;-85
2024/02/19 07:39:24;;;;;;;7.32;2.28;;;;;;;;;;4984853;28;20022;-85
2024/02/19 07:41:50;;;;;;;12.27;2.60;;;;;;;;;;4991049;28;20060;-85
2024/02/19 07:44:15;;;;;;;9.43;2.95;;;;;;;;;;4987593;28;20404;-85
2024/02/19 07:46:40;;;;;;;10.85;2.30;;;;;;;;;;4992503;28;20034;-84
2024/02/19 07:49:06;;;;;;;10.13;2.42;;;;;;;;;;4990375;28;20431;-85
2024/02/19 07:51:31;;;;;;;8.98;2.30;;;;;;;;;;4984354;28;20105;-85
2024/02/19 07:53:58;;;;;;;12.55;3.13;;;;;;;;;;4994592;28;20022;-85
2024/02/19 07:56:23;;;;;;;10.18;2.67;;;;;;;;;;4993185;28;20045;-85
2024/02/19 07:58:49;;;;;;;12.80;2.60;;;;;;;;;;4993448;28;20380;-85
2024/02/19 08:01:15;;;;;;;13.68;3.00;;;;;;;;;;4973494;28;20507;-85
2024/02/19 08:03:40;;;;;;;11.50;3.00;;;;;;;;;;4990179;28;20403;-84
2024/02/19 08:06:07;;;;;;;14.40;2.90;;;;;;;;;;4995213;28;20026;-85
2024/02/19 08:08:32;;;;;;;11.25;2.53;;;;;;;;;;4984607;28;20121;-84
2024/02/19 08:10:58;;;;;;;11.93;2.88;;;;;;;;;;4989651;28;20118;-86
2024/02/19 08:13:24;;;;;;;10.27;3.28;;;;;;;;;;4992935;28;20029;-84
2024/02/19 08:15:49;;;;;;;12.05;2.90;;;;;;;;;;4994885;28;20064;-85
2024/02/19 08:18:15;;;;;;;16.30;3.13;;;;;;;;;;4975003;28;20046;-84
2024/02/19 08:20:40;;;;;;;12.82;3.10;;;;;;;;;;4996198;28;20022;-85
2024/02/19 08:23:06;;;;;;;12.75;3.33;;;;;;;;;;4997940;28;20072;-85
2024/02/19 08:25:32;;;;;;;9.60;3.20;;;;;;;;;;4991523;28;20053;-86
2024/02/19 08:27:58;;;;;;;12.48;3.33;;;;;;;;;;4976905;28;20027;-85
2024/02/19 08:30:23;;;;;;;12.52;3.88;;;;;;;;;;4979492;28;20030;-85
2024/02/19 08:32:49;;;;;;;13.00;3.70;;;;;;;;;;4995934;28;20492;-85
2024/02/19 08:35:14;;;;;;;10.27;3.40;;;;;;;;;;4997115;28;20121;-86
2024/02/19 08:37:40;;;;;;;12.15;3.75;;;;;;;;;;4997813;28;20027;-84
2024/02/19 08:40:06;;;;;;;17.60;4.32;;;;;;;;;;4988240;28;20118;-85
2024/02/19 08:42:31;;;;;;;16.98;4.25;;;;;;;;;;4994885;28;20385;-85
2024/02/19 08:44:57;;;;;;;13.57;4.45;;;;;;;;;;4998809;28;20030;-85
2024/02/19 08:47:22;;;;;;;11.35;4.20;;;;;;;;;;4994556;28;20038;-85
2024/02/19 08:49:48;;;;;;;12.20;4.03;;;;;;;;;;4997471;28;20105;-86
2024/02/19 08:52:14;;;;;;;10.88;4.03;;;;;;;;;;4981705;28;20481;-85
2024/02/19 08:54:40;;;;;;;12.15;3.90;;;;;;;;;;4993864;28;20038;-85
2024/02/19 08:57:05;;;;;;;12.10;4.50;;;;;;;;;;4993677;28;20026;-85
2024/02/19 08:59:31;;;;;;;13.40;4.70;;;;;;;;;;4974839;28;20385;-85
2024/02/19 09:01:57;;;;;;;13.00;4.32;;;;;;;;;;4991662;28;20022;-85
2024/02/19 09:04:23;;;;;;;15.40;4.97;;;;;;;;;;4992877;28;20029;-85
2024/02/19 09:06:49;;;;;;;16.83;5.05;;;;;;;;;;4993477;28;20488;-81
2024/02/19 09:09:15;;;;;;;16.70;5.70;;;;;;;;;;4992352;28;20210;-81
2024/02/19 09:11:40;;;;;;;18.33;5.32;;;;;;;;;;4992507;28;20014;-81
2024/02/19 09:14:06;;;;;;;15.40;5.88;;;;;;;;;;4984549;28;20400;-81
2024/02/19 09:16:31;;;;;;;14.35;5.20;;;;;;;;;;4989857;28;20034;-81
2024/02/19 09:18:57;;;;;;;14.68;5.55;;;;;;;;;;4992339;28;20022;-81
2024/02/19 09:21:23;;;;;;;14.57;5.90;;;;;;;;;;4984821;28;20150;-81
2024/02/19 09:23:48;;;;;;;13.32;5.43;;;;;;;;;;4986252;28;20038;-81
2024/02/19 09:26:14;;;;;;;15.20;5.93;;;;;;;;;;4990413;28;20029;-81
2024/02/19 09:28:40;;;;;;;15.07;6.03;;;;;;;;;;4983271;28;20455;-81
2024/02/19 09:31:05;;;;;;;15.82;6.25;;;;;;;;;;4993719;28;20037;-81
2024/02/19 09:33:31;;;;;;;20.08;6.78;;;;;;;;;;4989920;28;20118;-81
2024/02/19 09:35:56;;;;;;;16.90;6.18;;;;;;;;;;4985328;28;20073;-80
2024/02/19 09:38:22;;;;;;;16.25;6.50;;;;;;;;;;4988665;28;20038;-81
2024/02/19 09:40:49;;;;;;;17.92;6.45;;;;;;;;;;4985876;28;20015;-81
2024/02/19 09:43:18;;;;;;;15.32;6.32;;;;;;;;;;4986173;28;20554;-81
2024/02/19 09:45:44;;;;;;;16.30;5.93;;;;;;;;;;4991481;28;20060;-80
2024/02/19 09:48:12;;;;;;;14.80;6.13;;;;;;;;;;4984456;28;20109;-81
2024/02/19 09:50:43;;;;;;;13.45;5.88;;;;;;;;;;4991922;28;20041;-80
2024/02/19 09:53:11;;;;;;;19.67;6.15;;;;;;;;;;4994726;28;20034;-80
2024/02/19 09:55:37;;;;;;;12.63;5.95;;;;;;;;;;4993911;28;20088;-81
2024/02/19 09:58:04;;;;;;;12.10;6.13;;;;;;;;;;4994719;28;20076;-81
2024/02/19 10:00:29;;;;;;;21.77;6.32;;;;;;;;;;4994332;28;20030;-81
2024/02/19 10:02:55;;;;;;;18.33;6.95;;;;;;;;;;4987304;28;20076;-81
2024/02/19 10:05:21;;;;;;;15.85;5.88;;;;;;;;;;4993757;28;20110;-81
2024/02/19 10:07:46;;;;;;;15.88;6.75;;;;;;;;;;4977675;28;20454;-81
2024/02/19 10:10:12;;;;;;;19.63;7.35;;;;;;;;;;4985118;28;20041;-81
2024/02/19 10:12:42;;;;;;;16.48;6.70;;;;;;;;;;4991052;28;20432;-81
2024/02/19 10:15:08;;;;;;;16.40;5.95;;;;;;;;;;4992211;28;20034;-81
2024/02/19 10:17:33;;;;;;;20.15;7.30;;;;;;;;;;4989878;28;20431;-81
2024/02/19 10:20:06;;;;;;;17.20;6.10;;;;;;;;;;4992555;28;20045;-81
2024/02/19 10:22:35;;;;;;;14.18;6.18;;;;;;;;;;4992593;28;20030;-81
2024/02/19 10:25:07;;;;;;;16.75;6.93;;;;;;;;;;4991266;28;20097;-80
2024/02/19 10:27:37;;;;;;;19.33;7.32;;;;;;;;;;4991246;28;20469;-81
2024/02/19 10:30:04;;;;;;;14.30;6.75;;;;;;;;;;4991129;28;20027;-81
2024/02/19 10:32:30;;;;;;;14.25;6.35;;;;;;;;;;4991612;28;20022;-80
2024/02/19 10:34:55;;;;;;;14.85;6.53;;;;;;;;;;4991209;28;20048;-80
2024/02/19 10:37:21;;;;;;;15.48;6.75;;;;;;;;;;4991102;28;20113;-80
2024/02/19 10:39:49;;;;;;;15.48;5.97;;;;;;;;;;4990282;28;20030;-81
2024/02/19 10:42:14;;;;;;;14.05;6.75;;;;;;;;;;4991404;28;20022;-81
2024/02/19 10:44:41;;;;;;;13.10;6.50;;;;;;;;;;4984678;28;20041;-81
2024/02/19 10:47:08;;;;;;;15.98;6.78;;;;;;;;;;4990837;28;20026;-81
2024/02/19 10:49:34;;;;;;;16.65;6.43;;;;;;;;;;4990523;28;20033;-81
2024/02/19 10:51:59;;;;;;;15.25;6.43;;;;;;;;;;4992389;28;20426;-80
2024/02/19 10:54:26;;;;;;;15.30;6.20;;;;;;;;;;4990422;28;20026;-81
2024/02/19 10:56:52;;;;;;;17.17;6.35;;;;;;;;;;4990375;28;20057;-81
2024/02/19 10:59:17;;;;;;;12.13;5.82;;;;;;;;;;4991659;28;20057;-81
2024/02/19 11:01:48;;;;;;;15.52;6.10;;;;;;;;;;4988425;28;20393;-81
2024/02/19 11:04:16;;;;;;;15.93;5.70;;;;;;;;;;4983368;28;20586;-81
2024/02/19 11:06:52;;;;;;;13.52;6.22;;;;;;;;;;4991300;28;20059;-81
2024/02/19 11:09:19;;;;;;;14.05;5.78;;;;;;;;;;4990578;28;20027;-81
2024/02/19 11:11:48;;;;;;;15.52;6.15;;;;;;;;;;4990891;28;20514;-81
2024/02/19 11:14:23;;;;;;;16.25;6.25;;;;;;;;;;4989914;28;20037;-81
2024/02/19 11:16:50;;;;;;;13.00;6.07;;;;;;;;;;4987134;28;20054;-81
2024/02/19 11:19:17;;;;;;;14.15;5.65;;;;;;;;;;4990994;28;20023;-81
2024/02/19 11:21:46;;;;;;;14.63;6.05;;;;;;;;;;4989578;28;20018;-81
2024/02/19 11:24:12;;;;;;;16.15;5.97;;;;;;;;;;4990087;28;20369;-81
2024/02/19 11:26:41;;;;;;;15.60;5.97;;;;;;;;;;4987543;28;20029;-87
2024/02/19 11:29:14;;;;;;;14.20;5.93;;;;;;;;;;4973015;28;20053;-87
2024/02/19 11:31:39;;;;;;;14.37;5.77;;;;;;;;;;4981768;28;20026;-87
2024/02/19 11:34:26;;;;;;;12.07;5.18;;;;;;;;;;4974611;28;20608;-87
2024/02/19 11:36:55;;;;;;;12.57;5.18;;;;;;;;;;4973926;28;20129;-86
2024/02/19 11:39:21;;;;;;;12.27;4.82;;;;;;;;;;4972963;28;20038;-87
2024/02/19 11:41:46;;;;;;;18.85;5.70;;;;;;;;;;4990937;28;20415;-88
2024/02/19 11:44:14;;;;;;;10.75;5.20;;;;;;;;;;4988896;28;20030;-87
2024/02/19 11:46:41;;;;;;;11.10;4.90;;;;;;;;;;4992046;28;20512;-87
2024/02/19 11:49:07;;;;;;;11.93;5.65;;;;;;;;;;4991391;28;20117;-88
2024/02/19 11:51:35;;;;;;;19.88;5.68;;;;;;;;;;4970516;28;20481;-87
2024/02/19 11:54:01;;;;;;;11.77;5.18;;;;;;;;;;4983143;28;20041;-88
2024/02/19 11:56:27;;;;;;;13.10;5.85;;;;;;;;;;4986720;28;20022;-88
2024/02/19 11:58:52;;;;;;;12.30;5.10;;;;;;;;;;4980192;28;20029;-88
2024/02/19 12:01:20;;;;;;;17.60;5.93;;;;;;;;;;4978440;28;20108;-88
2024/02/19 12:03:46;;;;;;;18.08;5.75;;;;;;;;;;4984795;28;20041;-87
2024/02/19 12:06:11;;;;;;;15.90;5.50;;;;;;;;;;4991669;28;20030;-87
2024/02/19 12:08:39;;;;;;;12.27;5.30;;;;;;;;;;4982321;28;20033;-88
2024/02/19 12:11:07;;;;;;;12.10;5.53;;;;;;;;;;4992238;28;20031;-87
2024/02/19 12:13:35;;;;;;;15.15;6.00;;;;;;;;;;4992299;28;20057;-88
2024/02/19 12:16:02;;;;;;;17.90;6.18;;;;;;;;;;4981153;28;20032;-88
2024/02/19 12:18:28;;;;;;;14.88;6.70;;;;;;;;;;4979910;28;20030;-87
2024/02/19 12:20:54;;;;;;;19.52;8.70;;;;;;;;;;4993068;28;20022;-87
2024/02/19 12:23:19;;;;;;;24.02;14.75;;;;;;;;;;4993423;28;20049;-88
2024/02/19 12:25:45;;;;;;;24.67;15.27;;;;;;;;;;4988520;28;20034;-87
2024/02/19 12:28:10;;;;;;;24.52;15.82;;;;;;;;;;4986409;28;20041;-87
2024/02/19 12:30:36;;;;;;;25.70;16.50;;;;;;;;;;4977941;28;20083;-87
2024/02/19 12:33:01;;;;;;;23.83;15.63;;;;;;;;;;4994819;28;20097;-87
2024/02/19 12:35:27;;;;;;;26.10;15.30;;;;;;;;;;4976263;28;20378;-87
2024/02/19 12:37:52;;;;;;;22.50;15.75;;;;;;;;;;4971190;28;20511;-88
2024/02/19 12:40:18;;;;;;;26.85;17.58;;;;;;;;;;4989623;28;20031;-88
2024/02/19 12:42:43;;;;;;;28.35;17.58;;;;;;;;;;4976530;28;20038;-87
2024/02/19 12:45:09;;;;;;;24.92;15.63;;;;;;;;;;4987211;28;20030;-88
2024/02/19 12:47:35;;;;;;;20.88;12.63;;;;;;;;;;4974389;28;20033;-87
2024/02/19 12:50:01;;;;;;;22.73;12.95;;;;;;;;;;4977500;28;20109;-87
2024/02/19 12:52:27;;;;;;;22.80;11.77;;;;;;;;;;4990344;28;20250;-88
2024/02/19 12:54:57;;;;;;;21.55;11.20;;;;;;;;;;4989926;28;20018;-87
2024/02/19 12:57:22;;;;;;;23.17;11.35;;;;;;;;;;4978153;28;20026;-88
2024/02/19 12:59:48;;;;;;;19.40;11.73;;;;;;;;;;4992750;28;20400;-88
2024/02/19 13:02:15;;;;;;;21.10;11.30;;;;;;;;;;4974676;28;20068;-87
2024/02/19 13:04:48;;;;;;;19.38;10.88;;;;;;;;;;4976541;28;20138;-88
2024/02/19 13:07:14;;;;;;;;;;;;;;;;;;4976960;28;20030;-87
2024/02/19 13:09:41;;;;;;;17.38;9.30;;;;;;;;;;4991072;28;19914;-87
2024/02/19 13:12:08;;;;;;;18.33;10.10;;;;;;;;;;4991688;28;20042;-87
2024/02/19 13:14:34;;;;;;;19.13;10.10;;;;;;;;;;4990801;28;20026;-88
2024/02/19 13:16:59;;;;;;;21.40;9.45;;;;;;;;;;4977544;28;20396;-87
2024/02/19 13:19:25;;;;;;;17.23;9.90;;;;;;;;;;4993253;28;20026;-88
2024/02/19 13:21:51;;;;;;;18.90;10.13;;;;;;;;;;4976151;28;20026;-88
2024/02/19 13:24:17;;;;;;;19.42;10.70;;;;;;;;;;4992747;28;20034;-88
2024/02/19 13:26:42;;;;;;;20.77;10.55;;;;;;;;;;4987311;28;20026;-87
2024/02/19 13:29:08;;;;;;;18.85;10.85;;;;;;;;;;4988158;28;20026;-87
2024/02/19 13:31:34;;;;;;;20.75;10.68;;;;;;;;;;4989109;28;20114;-87
2024/02/19 13:33:59;;;;;;;18.35;10.77;;;;;;;;;;4978278;28;20124;-87
2024/02/19 13:36:24;;;;;;;22.98;10.45;;;;;;;;;;4974520;28;20108;-87
2024/02/19 13:38:50;;;;;;;21.17;10.13;;;;;;;;;;4991754;28;20384;-88
2024/02/19 13:41:15;;;;;;;22.20;11.18;;;;;;;;;;4991751;28;20034;-88
2024/02/19 13:43:42;;;;;;;24.15;11.77;;;;;;;;;;4976440;28;20365;-87
2024/02/19 13:46:08;;;;;;;18.95;11.05;;;;;;;;;;4993127;28;20022;-87
2024/02/19 13:48:34;;;;;;;24.63;12.18;;;;;;;;;;4988307;28;20509;-88
2024/02/19 13:51:00;;;;;;;22.17;11.38;;;;;;;;;;4989794;28;20101;-88
2024/02/19 13:53:28;;;;;;;22.25;11.70;;;;;;;;;;4968007;28;20031;-88
2024/02/19 13:55:54;;;;;;;24.17;10.95;;;;;;;;;;4974047;28;20034;-88
2024/02/19 13:58:22;;;;;;;12.25;6.90;;;;;;;;;;4991548;28;20061;-86
2024/02/19 14:00:47;;;;;;;14.85;7.30;;;;;;;;;;4981859;28;20045;-86
2024/02/19 14:03:13;;;;;;;16.20;5.88;;;;;;;;;;4991887;28;20508;-87
2024/02/19 14:05:39;;;;;;;14.40;5.05;;;;;;;;;;4971890;28;20026;-87
2024/02/19 14:08:05;;;;;;;15.32;5.40;;;;;;;;;;4980231;28;20045;-88
2024/02/19 14:10:31;;;;;;;17.85;4.68;;;;;;;;;;4969610;28;20416;-87
2024/02/19 14:12:56;;;;;;;13.00;4.78;;;;;;;;;;4989775;28;20023;-87
2024/02/19 14:15:22;;;;;;;10.52;4.28;;;;;;;;;;4986982;28;20521;-87
2024/02/19 14:17:47;;;;;;;11.77;4.72;;;;;;;;;;4980982;28;20442;-86
2024/02/19 14:20:16;;;;;;;14.27;4.28;;;;;;;;;;4960000;28;20035;-88
2024/02/19 14:22:42;;;;;;;12.93;4.18;;;;;;;;;;4969144;28;20170;-87
2024/02/19 14:25:09;;;;;;;14.82;4.25;;;;;;;;;;4984361;28;20038;-87
2024/02/19 14:27:38;;;;;;;12.80;3.92;;;;;;;;;;4978599;28;20062;-88